Time;durP1;ratioP1;P1;durP2;ratioP2;P2;SDS_P1;SDS_P2;PMS_P1;PMS_P2;Temp;Humidity;BMP_temperature;BMP_pressure;BME280_temperature;BME280_humidity;BME280_pressure;Samples;Min_cycle;Max_cycle;Signal;HPM_P1;HPM_P2
2023/08/23 07:01:27;;;;;;;0.10;0.10;;;22.80;99.90;23.70;101814.00;;;;6091126;22;4213272;-65
2023/08/23 07:04:00;;;;;;;0.20;0.20;;;21.70;99.90;26.80;101860.00;;;;6255935;22;20194;-66
2023/08/23 07:06:37;;;;;;;1.45;1.38;;;23.10;99.90;25.90;101843.00;;;;6256174;22;20183;-65
2023/08/23 07:09:06;;;;;;;1.27;0.32;;;23.30;99.90;25.10;101814.00;;;;6282330;22;20136;-65
2023/08/23 07:11:32;;;;;;;0.35;0.35;;;22.80;99.90;23.70;101809.00;;;;6256096;22;20152;-65
2023/08/23 07:14:10;;;;;;;0.10;0.10;;;21.80;99.90;24.80;101824.00;;;;6255874;22;20169;-65
2023/08/23 07:16:41;;;;;;;0.10;0.10;;;22.20;99.90;25.10;101824.00;;;;6256228;22;20160;-65
2023/08/23 07:19:18;;;;;;;0.25;0.25;;;22.30;99.90;24.90;101826.00;;;;6256249;22;20482;-65
2023/08/23 07:21:44;;;;;;;0.70;0.70;;;22.30;99.90;25.70;101829.00;;;;6282196;22;20206;-65
2023/08/23 07:24:13;;;;;;;0.10;0.10;;;22.60;99.90;29.50;101861.00;;;;6256034;22;20152;-65
2023/08/23 07:26:39;;;;;;;1.05;1.05;;;24.70;99.90;31.00;101915.00;;;;6255701;22;20573;-65
2023/08/23 07:29:05;;;;;;;2.20;1.77;;;26.90;99.90;31.40;101919.00;;;;6255786;22;20148;-65
2023/08/23 07:31:34;;;;;;;0.10;0.10;;;27.00;99.90;31.90;101938.00;;;;6256113;22;20152;-65
2023/08/23 07:34:00;;;;;;;12.30;2.67;;;27.70;99.90;30.00;101938.00;;;;6256223;22;20159;-65
2023/08/23 07:36:26;;;;;;;0.10;0.10;;;26.70;99.90;29.80;101900.00;;;;6256031;22;20166;-66
2023/08/23 07:38:57;;;;;;;0.10;0.10;;;26.20;99.90;31.80;101930.00;;;;6256014;22;20492;-65
2023/08/23 07:41:23;;;;;;;0.10;0.10;;;27.50;99.90;31.20;101958.00;;;;6255958;22;20190;-65
2023/08/23 07:43:49;;;;;;;0.10;0.10;;;27.90;99.90;30.50;101964.00;;;;6256097;22;20585;-65
2023/08/23 07:46:15;;;;;;;0.57;0.57;;;27.50;99.90;29.90;101976.00;;;;6256338;22;20599;-65
2023/08/23 07:48:45;;;;;;;0.10;0.10;;;27.30;99.90;27.90;101958.00;;;;6281500;22;20147;-65
2023/08/23 07:51:35;;;;;;;0.10;0.10;;;26.00;99.90;28.70;101906.00;;;;6255805;22;20152;-65
2023/08/23 07:54:04;;;;;;;0.10;0.10;;;25.40;99.90;29.20;101924.00;;;;6272502;22;20164;-65
2023/08/23 07:56:44;;;;;;;0.10;0.10;;;25.50;99.90;28.90;101950.00;;;;6281566;22;20152;-65
2023/08/23 07:59:16;;;;;;;0.90;0.90;;;26.10;99.90;31.80;101936.00;;;;6281574;22;20179;-65
2023/08/23 08:01:44;;;;;;;0.65;0.65;;;27.00;99.90;33.10;101950.00;;;;6250446;22;20169;-65
2023/08/23 08:04:14;;;;;;;4.03;1.77;;;28.90;99.90;33.90;101943.00;;;;6275861;22;20211;-65
2023/08/23 08:06:48;;;;;;;0.60;0.60;;;29.70;99.90;30.10;102000.00;;;;6277717;22;20157;-65
2023/08/23 08:09:26;;;;;;;0.10;0.10;;;28.00;99.90;28.10;102004.00;;;;6250807;22;20163;-65
2023/08/23 08:11:54;;;;;;;0.10;0.10;;;26.50;99.90;26.50;101911.00;;;;6275851;22;20233;-65
2023/08/23 08:14:23;;;;;;;1.27;0.95;;;24.80;99.90;28.80;101891.00;;;;6250580;22;20238;-66
2023/08/23 08:16:49;;;;;;;3.00;1.63;;;25.00;99.90;28.30;101935.00;;;;6250155;22;20149;-65
2023/08/23 08:19:15;;;;;;;3.42;1.77;;;25.60;99.90;26.40;101889.00;;;;6250511;22;20589;-65
2023/08/23 08:21:49;;;;;;;2.13;1.83;;;24.60;99.90;26.50;101871.00;;;;6250601;22;20153;-65
2023/08/23 08:24:16;;;;;;;0.50;0.50;;;24.60;99.90;27.30;101853.00;;;;6275928;22;20141;-65
2023/08/23 08:26:49;;;;;;;0.20;0.20;;;24.60;99.90;27.10;101876.00;;;;6276450;22;20557;-65
2023/08/23 08:29:16;;;;;;;0.20;0.20;;;25.00;99.90;30.50;101900.00;;;;6275829;22;20667;-65
2023/08/23 08:31:50;;;;;;;0.20;0.20;;;26.10;99.90;28.20;101974.00;;;;6250696;22;20149;-65
2023/08/23 08:34:18;;;;;;;0.10;0.10;;;26.40;99.90;28.00;101892.00;;;;6276400;22;20149;-65
2023/08/23 08:36:47;;;;;;;0.20;0.20;;;25.20;99.90;30.20;101917.00;;;;6276042;22;20184;-65
2023/08/23 08:39:13;;;;;;;0.13;0.13;;;26.10;99.90;28.10;101942.00;;;;6250412;22;20160;-65
2023/08/23 08:41:41;;;;;;;0.22;0.22;;;25.80;99.90;30.20;101949.00;;;;6250369;22;20187;-65
2023/08/23 08:44:14;;;;;;;0.10;0.10;;;26.40;99.90;30.20;101943.00;;;;6276091;22;20172;-65
2023/08/23 08:46:40;;;;;;;0.10;0.10;;;26.40;99.90;29.50;101973.00;;;;6250476;22;20521;-65
2023/08/23 08:49:08;;;;;;;0.10;0.10;;;26.70;99.90;29.80;101988.00;;;;6276025;22;20191;-65
2023/08/23 08:51:38;;;;;;;1.02;0.25;;;26.90;99.90;30.10;101960.00;;;;6250731;22;20160;-65
2023/08/23 08:54:09;;;;;;;0.10;0.10;;;26.40;99.90;29.90;101956.00;;;;6277741;22;20150;-65
2023/08/23 08:56:42;;;;;;;0.10;0.10;;;26.20;99.90;29.80;101963.00;;;;6277583;22;20145;-65
2023/08/23 08:59:19;;;;;;;0.08;0.08;;;26.40;99.90;32.00;101979.00;;;;6250509;22;20157;-66
2023/08/23 09:01:46;;;;;;;2.38;1.23;;;27.60;99.90;30.00;102010.00;;;;6277340;22;20152;-65
2023/08/23 09:04:14;;;;;;;1.48;1.38;;;27.70;99.90;26.60;101989.00;;;;6250188;22;20160;-65
2023/08/23 09:06:50;;;;;;;0.55;0.55;;;25.60;99.90;26.60;101911.00;;;;6250222;22;20160;-65
2023/08/23 09:09:24;;;;;;;0.22;0.22;;;24.70;99.90;30.50;101948.00;;;;6275857;22;20222;-65
2023/08/23 09:11:56;;;;;;;0.10;0.10;;;26.10;99.90;29.50;101977.00;;;;6250437;22;20168;-65
2023/08/23 09:14:25;;;;;;;0.10;0.10;;;26.20;99.90;29.40;101979.00;;;;6250147;22;20235;-65
2023/08/23 09:16:51;;;;;;;0.17;0.17;;;26.40;99.90;31.00;101988.00;;;;6250404;22;20157;-65
2023/08/23 09:19:22;;;;;;;0.20;0.20;;;27.00;99.90;31.50;102002.00;;;;6250197;22;20207;-66
2023/08/23 09:21:49;;;;;;;0.55;0.55;;;28.10;99.90;31.40;102009.00;;;;6277163;22;20146;-66
2023/08/23 09:24:20;;;;;;;0.10;0.10;;;28.40;99.90;29.90;102011.00;;;;6275833;22;20148;-65
2023/08/23 09:26:52;;;;;;;6.50;1.30;;;26.90;99.90;30.60;102010.00;;;;6275708;22;20175;-65
2023/08/23 09:29:24;;;;;;;0.10;0.10;;;26.90;99.90;31.60;102002.00;;;;6250369;22;20149;-66
2023/08/23 09:31:50;;;;;;;0.10;0.10;;;27.40;99.90;29.70;102010.00;;;;6275717;22;20163;-65
2023/08/23 09:34:16;;;;;;;3.45;1.73;;;26.60;99.90;31.70;102012.00;;;;6249738;22;20156;-65
2023/08/23 09:36:43;;;;;;;0.10;0.10;;;27.70;99.90;30.80;102020.00;;;;6250143;22;20244;-65
2023/08/23 09:39:17;;;;;;;1.33;0.70;;;27.20;99.90;29.30;102028.00;;;;6250037;22;20156;-65
2023/08/23 09:41:43;;;;;;;0.10;0.10;;;27.20;99.90;31.40;102014.00;;;;6275124;22;20231;-65
2023/08/23 09:44:12;;;;;;;0.10;0.10;;;27.30;99.90;29.40;102036.00;;;;6275520;22;20145;-65
2023/08/23 09:46:45;;;;;;;0.10;0.10;;;27.20;99.90;31.30;102006.00;;;;6250585;22;20572;-65
2023/08/23 09:49:14;;;;;;;0.10;0.10;;;27.60;99.90;29.70;102017.00;;;;6275218;22;20148;-65
2023/08/23 09:51:48;;;;;;;0.10;0.10;;;26.90;99.90;33.00;101968.00;;;;6275510;22;20146;-65
2023/08/23 09:54:24;;;;;;;0.10;0.10;;;28.20;99.90;33.20;101987.00;;;;6250058;22;20148;-66
2023/08/23 09:56:51;;;;;;;0.30;0.30;;;29.50;99.90;31.90;102016.00;;;;6275208;22;20646;-65
2023/08/23 09:59:17;;;;;;;0.20;0.20;;;28.50;99.90;33.80;101986.00;;;;6250598;22;20250;-65
2023/08/23 10:01:45;;;;;;;0.10;0.10;;;29.20;99.90;29.80;102000.00;;;;6254998;22;20453;-65
2023/08/23 10:04:15;;;;;;;0.10;0.10;;;27.90;99.90;32.30;102014.00;;;;6280290;22;20175;-65
2023/08/23 10:06:43;;;;;;;0.10;0.10;;;28.30;99.90;31.20;102022.00;;;;6255318;22;20166;-65
2023/08/23 10:09:17;;;;;;;0.32;0.32;;;27.70;99.90;30.00;102035.00;;;;6254336;22;20149;-65
2023/08/23 10:11:49;;;;;;;0.10;0.10;;;27.40;99.90;32.40;102017.00;;;;6254543;22;20160;-65
2023/08/23 10:14:19;;;;;;;0.45;0.35;;;28.00;99.90;33.70;101957.00;;;;6280401;22;20227;-66
2023/08/23 10:16:52;;;;;;;2.00;0.93;;;29.40;99.90;31.10;102002.00;;;;6280004;22;20580;-65
2023/08/23 10:19:19;;;;;;;6.60;5.38;;;28.70;99.90;31.90;101995.00;;;;6280982;22;20137;-65
2023/08/23 10:33:30;;;;;;;0.30;0.30;;;26.20;99.90;30.50;101903.00;;;;5172347;27;20547;-66
2023/08/23 10:35:56;;;;;;;0.20;0.13;;;27.00;99.90;33.20;101948.00;;;;5116409;27;20191;-64
2023/08/23 10:38:27;;;;;;;0.10;0.10;;;28.60;99.90;33.40;101959.00;;;;5104366;27;20215;-65
2023/08/23 10:41:01;;;;;;;0.32;0.32;;;29.30;99.90;29.10;102001.00;;;;5116525;27;20221;-64
2023/08/23 10:43:32;;;;;;;0.10;0.10;;;27.20;99.90;32.60;101953.00;;;;5133937;27;20269;-64
2023/08/23 10:46:08;;;;;;;0.10;0.10;;;28.20;99.90;34.00;101928.00;;;;5133306;27;20277;-65
2023/08/23 10:48:35;;;;;;;0.10;0.10;;;29.40;99.90;34.50;101913.00;;;;5130319;27;20194;-65
2023/08/23 10:51:07;;;;;;;0.10;0.10;;;30.00;99.90;35.40;101892.00;;;;5133083;27;20228;-65
2023/08/23 10:53:36;;;;;;;6.03;3.63;;;30.90;99.90;32.70;101927.00;;;;5112899;28;20228;-64
2023/08/23 10:56:08;;;;;;;0.20;0.20;;;29.70;99.90;32.70;101928.00;;;;5108352;27;20187;-64
2023/08/23 10:58:40;;;;;;;0.10;0.10;;;29.70;99.90;33.50;101920.00;;;;5138315;27;20171;-64
2023/08/23 11:01:06;;;;;;;0.17;0.17;;;29.90;99.90;33.90;101898.00;;;;5115417;27;20515;-65
2023/08/23 11:03:33;;;;;;;0.10;0.10;;;30.30;99.90;35.00;101881.00;;;;5106885;27;20187;-65
2023/08/23 11:06:01;;;;;;;0.20;0.20;;;30.60;99.90;35.70;101861.00;;;;5126124;27;20183;-65
2023/08/23 11:08:29;;;;;;;0.10;0.10;;;31.20;99.90;34.80;101889.00;;;;5121485;27;20202;-64
2023/08/23 11:10:57;;;;;;;0.10;0.10;;;31.30;99.90;30.30;101949.00;;;;5147884;27;20661;-65
2023/08/23 11:13:27;;;;;;;1.42;0.15;;;29.50;99.90;33.60;101900.00;;;;5132720;27;20178;-65
2023/08/23 11:15:58;;;;;;;0.35;0.35;;;29.50;99.90;34.40;101881.00;;;;5147943;27;20191;-66
2023/08/23 11:18:27;;;;;;;0.10;0.10;;;30.20;99.90;35.50;101865.00;;;;5133312;27;20263;-66
2023/08/23 11:20:53;;;;;;;0.13;0.13;;;31.10;99.90;35.00;101885.00;;;;5112179;28;20629;-66
2023/08/23 11:23:29;;;;;;;0.10;0.10;;;31.30;99.90;36.20;101861.00;;;;5132874;27;20186;-66
2023/08/23 11:25:55;;;;;;;0.55;0.55;;;32.10;99.90;35.10;101874.00;;;;5129741;27;20182;-66
2023/08/23 11:28:22;;;;;;;2.22;1.42;;;31.90;99.90;31.40;101930.00;;;;5132447;27;20182;-65
2023/08/23 11:30:48;;;;;;;1.45;0.98;;;29.60;99.90;33.30;101911.00;;;;5150584;27;20187;-66
2023/08/23 11:33:17;;;;;;;0.40;0.40;;;29.80;99.90;32.30;101937.00;;;;5132253;27;20214;-65
2023/08/23 11:35:44;;;;;;;0.10;0.10;;;28.90;99.90;31.90;101937.00;;;;5111817;28;20179;-65
2023/08/23 11:38:13;;;;;;;0.10;0.10;;;28.90;99.90;33.30;101927.00;;;;5112325;27;20203;-65
2023/08/23 11:40:39;;;;;;;0.10;0.10;;;29.20;99.90;33.40;101922.00;;;;5114725;27;20191;-66
2023/08/23 11:43:07;;;;;;;0.52;0.52;;;29.60;99.90;34.20;101908.00;;;;5097483;27;20228;-65
2023/08/23 11:45:38;;;;;;;0.10;0.10;;;29.80;99.90;35.10;101897.00;;;;5107174;28;20451;-66
2023/08/23 11:48:06;;;;;;;0.32;0.17;;;30.60;99.90;35.50;101884.00;;;;5101586;28;20175;-66
2023/08/23 11:50:35;;;;;;;0.10;0.10;;;31.40;99.90;35.70;101882.00;;;;5117645;27;20188;-66
2023/08/23 11:53:04;;;;;;;0.10;0.10;;;31.50;99.90;36.50;101871.00;;;;5090119;27;20206;-66
2023/08/23 11:55:33;;;;;;;0.20;0.20;;;31.90;99.90;37.00;101875.00;;;;5101178;27;20219;-66
2023/08/23 11:58:04;;;;;;;0.10;0.10;;;32.30;99.90;35.50;101906.00;;;;5110625;28;20699;-66
2023/08/23 12:00:33;;;;;;;0.60;0.60;;;31.90;99.90;35.50;101902.00;;;;5106045;27;20188;-66
2023/08/23 12:03:00;;;;;;;0.40;0.40;;;31.50;99.90;33.20;101939.00;;;;5097513;27;20218;-66
2023/08/23 12:05:26;;;;;;;2.17;1.88;;;30.40;99.90;34.60;101935.00;;;;5118148;27;20184;-66
2023/08/23 12:08:04;;;;;;;0.10;0.10;;;30.40;99.90;35.20;101932.00;;;;5101193;27;20230;-66
2023/08/23 12:10:33;;;;;;;0.73;0.73;;;30.90;99.90;35.20;101924.00;;;;5101430;27;20714;-66
2023/08/23 12:13:00;;;;;;;0.10;0.10;;;31.00;99.90;35.00;101936.00;;;;5107690;27;20200;-66
2023/08/23 12:15:26;;;;;;;0.30;0.30;;;30.90;99.90;32.30;101956.00;;;;5112923;27;20179;-66
2023/08/23 12:17:54;;;;;;;0.10;0.10;;;29.50;99.90;32.60;101951.00;;;;5135168;27;20232;-66
2023/08/23 12:20:23;;;;;;;1.75;1.35;;;29.10;99.90;31.20;101984.00;;;;5105805;27;20660;-65
2023/08/23 12:22:50;;;;;;;3.25;1.42;;;28.80;99.90;30.30;101977.00;;;;5100211;27;20183;-65
2023/08/23 12:25:17;;;;;;;8.77;1.35;;;28.00;99.90;30.60;102000.00;;;;5088359;27;20184;-65
2023/08/23 12:27:46;;;;;;;0.47;0.47;;;27.40;99.90;29.90;102015.00;;;;5117567;27;20266;-65
2023/08/23 12:30:20;;;;;;;0.10;0.10;;;27.10;99.90;31.50;101990.00;;;;5100872;27;20175;-65
2023/08/23 12:32:53;;;;;;;0.10;0.10;;;27.50;99.90;32.70;101966.00;;;;5103571;27;20222;-65
2023/08/23 12:35:36;;;;;;;0.35;0.35;;;28.20;99.90;32.70;101960.00;;;;5100521;27;20191;-65
2023/08/23 12:38:10;;;;;;;1.85;1.75;;;28.70;99.90;30.40;102009.00;;;;5123006;27;20202;-65
2023/08/23 12:40:37;;;;;;;0.30;0.30;;;28.10;99.90;31.20;101998.00;;;;5099588;27;20184;-65
2023/08/23 12:43:06;;;;;;;0.10;0.10;;;27.80;99.90;29.70;102007.00;;;;5098609;28;20202;-64
2023/08/23 12:45:32;;;;;;;0.10;0.10;;;27.40;99.90;31.40;101985.00;;;;5096056;27;20522;-65
2023/08/23 12:47:58;;;;;;;0.10;0.10;;;27.50;99.90;32.00;101958.00;;;;5100163;27;20307;-65
2023/08/23 12:50:27;;;;;;;0.10;0.10;;;28.10;99.90;30.60;101984.00;;;;5133057;27;20187;-65
2023/08/23 12:52:53;;;;;;;0.10;0.10;;;27.70;99.90;32.90;101945.00;;;;5099392;27;20306;-65
2023/08/23 12:55:31;;;;;;;0.10;0.10;;;28.30;99.90;33.40;101930.00;;;;5095649;28;20725;-65
2023/08/23 12:58:03;;;;;;;0.10;0.10;;;29.00;99.90;34.00;101920.00;;;;5130116;27;20267;-65
2023/08/23 13:00:32;;;;;;;0.10;0.10;;;29.50;99.90;34.10;101915.00;;;;5117172;27;20179;-65
2023/08/23 13:03:00;;;;;;;0.38;0.20;;;29.80;99.90;32.60;101910.00;;;;5135134;27;20191;-65
2023/08/23 13:05:29;;;;;;;0.17;0.17;;;29.30;99.90;33.00;101925.00;;;;5135262;27;20645;-65
2023/08/23 13:07:57;;;;;;;0.43;0.43;;;29.20;99.90;33.50;101920.00;;;;5099377;27;20269;-65
2023/08/23 13:10:24;;;;;;;0.10;0.10;;;29.40;99.90;33.80;101907.00;;;;5100196;27;20183;-65
2023/08/23 13:12:50;;;;;;;0.60;0.60;;;29.60;99.90;34.40;101897.00;;;;5099604;27;20679;-65
2023/08/23 13:15:21;;;;;;;0.10;0.10;;;29.90;99.90;33.70;101910.00;;;;5099907;27;20195;-65
2023/08/23 13:17:56;;;;;;;0.15;0.15;;;29.90;99.90;32.10;101911.00;;;;5095870;28;20192;-65
2023/08/23 13:20:27;;;;;;;0.30;0.30;;;29.30;99.90;32.40;101912.00;;;;5096686;27;20233;-65
2023/08/23 13:22:57;;;;;;;0.20;0.20;;;28.80;99.90;33.40;101900.00;;;;5110295;28;20195;-65
2023/08/23 13:25:30;;;;;;;0.43;0.43;;;29.10;99.90;31.50;101913.00;;;;5118858;27;20194;-65
2023/08/23 13:27:56;;;;;;;0.10;0.10;;;28.80;99.90;32.90;101900.00;;;;5097063;27;20278;-65
2023/08/23 13:30:26;;;;;;;0.30;0.30;;;28.80;99.90;33.70;101888.00;;;;5100170;27;20188;-65
2023/08/23 13:32:55;;;;;;;0.10;0.10;;;29.20;99.90;34.20;101881.00;;;;5099728;27;20575;-66
2023/08/23 13:35:21;;;;;;;0.20;0.20;;;29.60;99.90;32.20;101884.00;;;;5116156;27;20215;-65
2023/08/23 13:37:47;;;;;;;0.10;0.10;;;29.30;99.90;33.50;101865.00;;;;5099349;27;20179;-65
2023/08/23 13:40:13;;;;;;;0.50;0.50;;;29.20;99.90;32.60;101881.00;;;;5096694;28;20664;-65
2023/08/23 13:42:42;;;;;;;0.22;0.22;;;29.20;99.90;33.60;101873.00;;;;5099188;27;20195;-65
2023/08/23 13:45:17;;;;;;;0.20;0.20;;;29.40;99.90;34.00;101876.00;;;;5083048;28;20215;-65
2023/08/23 13:47:53;;;;;;;0.30;0.30;;;29.60;99.90;34.10;101897.00;;;;5080678;28;20195;-66
2023/08/23 13:50:22;;;;;;;0.10;0.10;;;29.80;99.90;34.30;101895.00;;;;5096540;27;20190;-65
2023/08/23 13:52:54;;;;;;;0.10;0.10;;;30.00;99.90;32.30;101900.00;;;;5115626;27;20212;-65
2023/08/23 13:55:20;;;;;;;0.20;0.20;;;29.40;99.90;33.30;101904.00;;;;5089445;28;20521;-65
2023/08/23 13:57:54;;;;;;;0.40;0.40;;;29.10;99.90;33.50;101902.00;;;;5096479;27;20183;-66
2023/08/23 14:00:21;;;;;;;1.08;0.98;;;29.40;99.90;33.30;101913.00;;;;5115997;27;20600;-65
2023/08/23 14:02:53;;;;;;;0.55;0.55;;;29.30;99.90;31.50;101925.00;;;;5115867;27;20236;-67
2023/08/23 14:05:19;;;;;;;0.20;0.20;;;28.50;99.90;32.80;101914.00;;;;5099111;27;20240;-65
2023/08/23 14:07:48;;;;;;;2.17;0.73;;;28.70;99.90;32.70;101912.00;;;;5093073;28;20696;-65
2023/08/23 14:10:14;;;;;;;0.10;0.10;;;28.80;99.90;33.50;101905.00;;;;5091231;27;20176;-65
2023/08/23 14:12:42;;;;;;;0.10;0.10;;;29.10;99.90;33.70;101905.00;;;;5115810;27;20214;-65
2023/08/23 14:15:09;;;;;;;0.52;0.52;;;29.40;99.90;34.20;101905.00;;;;5085599;27;20240;-65
2023/08/23 14:17:35;;;;;;;0.10;0.10;;;29.70;99.90;33.60;101902.00;;;;5108625;28;20184;-64
2023/08/23 14:20:08;;;;;;;0.13;0.13;;;29.70;99.90;33.30;101900.00;;;;5092053;27;20194;-67
2023/08/23 14:22:34;;;;;;;0.10;0.10;;;29.50;99.90;33.10;101898.00;;;;5115990;28;20183;-64
2023/08/23 14:25:09;;;;;;;0.52;0.52;;;29.10;99.90;33.40;101901.00;;;;5098364;28;20191;-64
2023/08/23 14:27:38;;;;;;;1.92;1.33;;;29.30;99.90;33.10;101907.00;;;;5115399;27;20648;-64
2023/08/23 14:30:15;;;;;;;0.43;0.43;;;29.30;99.90;32.50;101909.00;;;;5095837;28;20276;-64
2023/08/23 14:32:49;;;;;;;0.10;0.10;;;29.10;99.90;32.80;101909.00;;;;5113711;28;20215;-67
2023/08/23 14:35:16;;;;;;;0.10;0.10;;;29.00;99.90;32.80;101906.00;;;;5089999;28;20206;-64
2023/08/23 14:37:48;;;;;;;0.13;0.13;;;28.90;99.90;32.00;101913.00;;;;5133762;28;20179;-67
2023/08/23 14:40:17;;;;;;;0.10;0.10;;;28.50;99.90;32.90;101898.00;;;;5096312;28;20271;-67
2023/08/23 14:42:46;;;;;;;0.10;0.10;;;28.60;99.90;32.40;101915.00;;;;5094219;28;20199;-67
2023/08/23 14:45:12;;;;;;;0.10;0.10;;;28.40;99.90;33.50;101904.00;;;;5100857;28;20184;-65
2023/08/23 14:47:38;;;;;;;0.30;0.30;;;28.90;99.90;32.50;101910.00;;;;5100106;28;20263;-65
2023/08/23 14:50:08;;;;;;;0.10;0.10;;;28.90;99.90;30.80;101930.00;;;;5091711;28;20187;-64
2023/08/23 14:52:40;;;;;;;0.10;0.10;;;28.10;99.90;32.50;101910.00;;;;5094913;28;20613;-67
2023/08/23 14:55:09;;;;;;;0.20;0.20;;;28.10;99.90;32.90;101907.00;;;;5091969;28;20190;-64
2023/08/23 14:57:35;;;;;;;0.10;0.10;;;28.30;99.90;33.10;101901.00;;;;5115345;28;20184;-64
2023/08/23 15:00:04;;;;;;;0.30;0.30;;;28.70;99.90;33.40;101901.00;;;;5115712;28;20187;-65
2023/08/23 15:02:34;;;;;;;0.30;0.30;;;28.90;99.90;33.80;101898.00;;;;5115381;28;20191;-65
2023/08/23 15:05:02;;;;;;;0.65;0.65;;;29.20;99.90;33.70;101899.00;;;;5115199;28;20180;-65
2023/08/23 15:07:31;;;;;;;0.40;0.40;;;29.20;99.90;33.60;101898.00;;;;5114991;28;20175;-65
2023/08/23 15:09:58;;;;;;;0.10;0.10;;;29.40;99.90;32.30;101899.00;;;;5115073;28;20180;-65
2023/08/23 15:12:29;;;;;;;0.38;0.38;;;28.90;99.90;32.90;101903.00;;;;5098212;28;20577;-65
2023/08/23 15:15:16;;;;;;;0.30;0.30;;;28.90;99.90;33.40;101903.00;;;;5083729;28;20204;-65
2023/08/23 15:17:45;;;;;;;0.10;0.10;;;29.00;99.90;33.10;101897.00;;;;5078228;28;20190;-67
2023/08/23 15:20:12;;;;;;;0.45;0.45;;;28.90;99.90;33.20;101894.00;;;;5101765;27;20186;-65
2023/08/23 15:22:40;;;;;;;0.10;0.10;;;29.00;99.90;33.00;101883.00;;;;5102198;27;20203;-65
2023/08/23 15:25:07;;;;;;;0.10;0.10;;;28.80;99.90;33.50;101879.00;;;;5093397;28;20199;-65
2023/08/23 15:27:33;;;;;;;0.10;0.10;;;29.00;99.90;33.20;101880.00;;;;5101420;27;20652;-65
2023/08/23 15:30:02;;;;;;;0.10;0.10;;;29.00;99.90;32.90;101875.00;;;;5101879;27;20629;-65
2023/08/23 15:32:34;;;;;;;0.10;0.10;;;29.00;99.90;33.40;101877.00;;;;5137417;27;20223;-65
2023/08/23 15:35:00;;;;;;;0.17;0.17;;;29.10;99.90;33.10;101863.00;;;;5118439;27;20543;-65
2023/08/23 15:37:31;;;;;;;1.85;1.00;;;29.10;99.90;33.70;101862.00;;;;5118744;27;20187;-65
2023/08/23 15:39:57;;;;;;;0.30;0.30;;;29.20;99.90;33.60;101869.00;;;;5136737;27;20537;-66
2023/08/23 15:42:29;;;;;;;0.10;0.10;;;29.30;99.90;33.40;101869.00;;;;5118903;27;20209;-65
2023/08/23 15:44:58;;;;;;;0.25;0.25;;;29.30;99.90;32.00;101876.00;;;;5103404;27;20180;-65
2023/08/23 15:47:34;;;;;;;0.10;0.10;;;28.80;99.90;33.40;101870.00;;;;5111012;28;20187;-65
2023/08/23 15:50:00;;;;;;;0.15;0.15;;;28.80;99.90;33.60;101856.00;;;;5112586;27;20179;-66
2023/08/23 15:52:32;;;;;;;1.08;0.88;;;29.10;99.90;33.20;101857.00;;;;5097895;27;20200;-66
2023/08/23 15:55:25;;;;;;;0.10;0.10;;;29.00;99.90;32.90;101851.00;;;;5132676;27;20184;-66
2023/08/23 15:57:56;;;;;;;0.10;0.10;;;28.90;99.90;33.20;101847.00;;;;5118803;27;20586;-66
2023/08/23 16:00:28;;;;;;;0.20;0.20;;;28.90;99.90;31.80;101862.00;;;;5100823;27;20218;-66
2023/08/23 16:02:59;;;;;;;0.10;0.10;;;28.30;99.90;32.40;101850.00;;;;5100881;27;20194;-66
2023/08/23 16:05:34;;;;;;;0.40;0.40;;;28.20;99.90;32.00;101826.00;;;;5100426;27;20195;-66
2023/08/23 16:08:08;;;;;;;0.40;0.40;;;28.00;99.90;31.20;101865.00;;;;5127696;27;20183;-67
2023/08/23 16:10:38;;;;;;;0.50;0.50;;;27.80;99.90;31.10;101865.00;;;;5094860;27;20189;-65
2023/08/23 16:13:10;;;;;;;0.20;0.20;;;27.60;99.90;31.50;101858.00;;;;5101491;27;20207;-65
2023/08/23 16:15:42;;;;;;;0.10;0.10;;;27.60;99.90;32.20;101845.00;;;;5118337;27;20183;-66
2023/08/23 16:18:08;;;;;;;0.10;0.10;;;27.90;99.90;32.60;101845.00;;;;5117936;27;20175;-66
2023/08/23 16:20:37;;;;;;;0.30;0.30;;;28.20;99.90;31.70;101851.00;;;;5093336;27;20188;-66
2023/08/23 16:23:06;;;;;;;2.28;2.17;;;28.10;99.90;32.20;101840.00;;;;5100766;27;20226;-66
2023/08/23 16:25:32;;;;;;;0.57;0.57;;;28.00;99.90;32.70;101837.00;;;;5097534;28;20188;-66
2023/08/23 16:28:08;;;;;;;2.47;1.33;;;28.30;99.90;32.40;101843.00;;;;5099368;27;20190;-66
2023/08/23 16:30:38;;;;;;;0.10;0.10;;;28.20;99.90;32.40;101852.00;;;;5112488;27;20574;-66
2023/08/23 16:33:05;;;;;;;1.45;1.45;;;28.30;99.90;31.60;101859.00;;;;5105322;27;20218;-66
2023/08/23 16:35:37;;;;;;;0.10;0.10;;;28.20;99.90;32.30;101838.00;;;;5100237;27;20183;-65
2023/08/23 16:38:03;;;;;;;0.65;0.65;;;28.00;99.90;32.70;101845.00;;;;5086184;28;20673;-66
2023/08/23 16:40:32;;;;;;;0.10;0.10;;;28.20;99.90;32.70;101846.00;;;;5094553;27;20195;-66
2023/08/23 16:43:05;;;;;;;0.95;0.95;;;28.40;99.90;32.90;101844.00;;;;5100808;27;20236;-66
2023/08/23 16:45:35;;;;;;;0.80;0.45;;;28.50;99.90;32.60;101855.00;;;;5100633;27;20183;-66
2023/08/23 16:48:09;;;;;;;0.10;0.10;;;28.50;99.90;31.30;101865.00;;;;5108117;28;20221;-66
2023/08/23 16:50:38;;;;;;;0.10;0.10;;;27.90;99.90;32.00;101865.00;;;;5099991;27;20183;-66
2023/08/23 16:53:07;;;;;;;0.10;0.10;;;28.00;99.90;32.10;101863.00;;;;5122979;27;20542;-65
2023/08/23 16:55:38;;;;;;;0.10;0.10;;;28.00;99.90;31.70;101880.00;;;;5107326;27;20230;-65
2023/08/23 16:58:14;;;;;;;0.10;0.10;;;27.90;99.90;32.30;101871.00;;;;5103164;27;20167;-66
2023/08/23 17:00:40;;;;;;;0.55;0.30;;;27.90;99.90;32.00;101875.00;;;;5113087;27;20664;-66
2023/08/23 17:03:14;;;;;;;1.20;1.02;;;28.00;99.90;30.70;101894.00;;;;5096152;28;20188;-66
2023/08/23 17:05:40;;;;;;;1.17;1.17;;;27.50;99.90;29.70;101890.00;;;;5096482;27;20342;-65
2023/08/23 17:08:07;;;;;;;0.10;0.10;;;26.90;99.90;29.80;101897.00;;;;5099823;27;20733;-65
2023/08/23 17:11:00;;;;;;;0.13;0.13;;;26.60;99.90;29.20;101864.00;;;;5099878;27;20207;-65
2023/08/23 17:13:36;;;;;;;0.50;0.50;;;26.40;99.90;29.00;101846.00;;;;5083723;28;20673;-65
2023/08/23 17:16:12;;;;;;;0.30;0.30;;;26.10;99.90;30.40;101860.00;;;;5109187;27;20667;-66
2023/08/23 17:18:41;;;;;;;0.10;0.10;;;26.40;99.90;30.50;101864.00;;;;5107329;27;20198;-65
2023/08/23 17:21:07;;;;;;;0.10;0.10;;;26.70;99.90;30.40;101878.00;;;;5133464;27;20195;-65
2023/08/23 17:23:55;;;;;;;0.20;0.20;;;26.60;99.90;30.90;101872.00;;;;5091514;27;20191;-65
2023/08/23 17:26:27;;;;;;;0.95;0.95;;;26.80;99.90;29.90;101883.00;;;;5081002;28;20196;-65
2023/08/23 17:29:16;;;;;;;3.67;1.35;;;26.50;99.90;29.90;101895.00;;;;5098523;27;20621;-65
2023/08/23 17:31:47;;;;;;;0.50;0.50;;;26.30;99.90;30.90;101888.00;;;;5097057;27;20207;-65
2023/08/23 17:34:14;;;;;;;0.38;0.38;;;26.60;99.90;29.10;101884.00;;;;5099113;27;20183;-66
2023/08/23 17:36:48;;;;;;;0.10;0.10;;;26.20;99.90;29.70;101878.00;;;;5116882;27;20265;-65
2023/08/23 17:39:18;;;;;;;0.28;0.28;;;26.10;99.90;29.60;101879.00;;;;5116145;27;20266;-65
2023/08/23 17:41:49;;;;;;;0.13;0.13;;;26.10;99.90;29.50;101859.00;;;;5115637;27;20231;-66
2023/08/23 17:44:15;;;;;;;0.10;0.10;;;26.00;99.90;29.90;101880.00;;;;5116695;27;20210;-65
2023/08/23 17:46:45;;;;;;;1.67;1.58;;;26.10;99.90;30.10;101882.00;;;;5099235;27;20194;-66
2023/08/23 17:49:11;;;;;;;0.20;0.20;;;26.20;99.90;29.90;101885.00;;;;5093926;27;20190;-65
2023/08/23 17:51:40;;;;;;;0.20;0.20;;;26.30;99.90;29.70;101874.00;;;;5095944;28;20192;-65
2023/08/23 17:54:07;;;;;;;0.15;0.15;;;26.10;99.90;29.90;101869.00;;;;5090997;27;20291;-66
2023/08/23 17:56:45;;;;;;;0.10;0.10;;;26.00;99.90;29.60;101858.00;;;;5096785;27;20266;-66
2023/08/23 17:59:17;;;;;;;0.10;0.10;;;26.00;99.90;29.20;101829.00;;;;5108579;27;20179;-65
2023/08/23 18:01:49;;;;;;;0.10;0.10;;;25.70;99.90;29.10;101824.00;;;;5095438;28;20251;-65
2023/08/23 18:04:15;;;;;;;0.30;0.30;;;25.70;99.90;29.20;101812.00;;;;5092622;27;20600;-66
2023/08/23 18:06:50;;;;;;;0.20;0.20;;;25.70;99.90;28.60;101809.00;;;;5092530;27;20283;-65
2023/08/23 18:09:17;;;;;;;0.32;0.32;;;25.60;99.90;28.70;101783.00;;;;5099002;27;20182;-65
2023/08/23 18:11:45;;;;;;;0.55;0.55;;;25.40;99.90;27.50;101752.00;;;;5098690;28;20907;-65